sensor_id;sensor_type;location;lat;lon;timestamp;P1;durP1;ratioP1;P2;durP2;ratioP2
7302;SDS011;54309;48.150;11.540;2022-07-23T00:01:24;4.80;;;4.40;;
7302;SDS011;54309;48.150;11.540;2022-07-23T00:03:53;5.03;;;4.50;;
7302;SDS011;54309;48.150;11.540;2022-07-23T00:06:21;4.47;;;4.07;;
7302;SDS011;54309;48.150;11.540;2022-07-23T00:08:48;5.78;;;4.50;;
7302;SDS011;54309;48.150;11.540;2022-07-23T00:11:15;5.72;;;4.00;;
7302;SDS011;54309;48.150;11.540;2022-07-23T00:13:43;5.68;;;5.05;;
7302;SDS011;54309;48.150;11.540;2022-07-23T00:16:10;5.15;;;4.40;;
7302;SDS011;54309;48.150;11.540;2022-07-23T00:18:37;5.20;;;4.28;;
7302;SDS011;54309;48.150;11.540;2022-07-23T00:21:06;4.45;;;4.05;;
7302;SDS011;54309;48.150;11.540;2022-07-23T00:23:33;5.55;;;4.68;;
7302;SDS011;54309;48.150;11.540;2022-07-23T00:26:00;5.68;;;4.43;;
7302;SDS011;54309;48.150;11.540;2022-07-23T00:28:28;6.78;;;4.32;;
7302;SDS011;54309;48.150;11.540;2022-07-23T00:30:55;5.25;;;3.97;;
7302;SDS011;54309;48.150;11.540;2022-07-23T00:33:22;4.32;;;3.92;;
7302;SDS011;54309;48.150;11.540;2022-07-23T00:35:49;4.20;;;3.80;;
7302;SDS011;54309;48.150;11.540;2022-07-23T00:38:18;5.25;;;4.75;;
7302;SDS011;54309;48.150;11.540;2022-07-23T00:40:45;4.78;;;4.05;;
7302;SDS011;54309;48.150;11.540;2022-07-23T00:43:12;4.45;;;4.05;;
7302;SDS011;54309;48.150;11.540;2022-07-23T00:45:39;5.35;;;3.92;;
7302;SDS011;54309;48.150;11.540;2022-07-23T00:48:07;4.20;;;3.80;;
7302;SDS011;54309;48.150;11.540;2022-07-23T00:50:34;4.82;;;4.43;;
7302;SDS011;54309;48.150;11.540;2022-07-23T00:53:01;4.53;;;4.13;;
7302;SDS011;54309;48.150;11.540;2022-07-23T00:55:30;6.13;;;4.47;;
7302;SDS011;54309;48.150;11.540;2022-07-23T00:57:57;5.90;;;4.13;;
7302;SDS011;54309;48.150;11.540;2022-07-23T01:00:25;5.93;;;3.95;;
7302;SDS011;54309;48.150;11.540;2022-07-23T01:02:52;5.15;;;4.65;;
7302;SDS011;54309;48.150;11.540;2022-07-23T01:05:19;5.65;;;3.97;;
7302;SDS011;54309;48.150;11.540;2022-07-23T01:07:48;5.07;;;4.57;;
7302;SDS011;54309;48.150;11.540;2022-07-23T01:10:15;6.07;;;4.47;;
7302;SDS011;54309;48.150;11.540;2022-07-23T01:12:59;5.15;;;4.65;;
7302;SDS011;54309;48.150;11.540;2022-07-23T01:15:27;4.63;;;3.97;;
7302;SDS011;54309;48.150;11.540;2022-07-23T01:17:54;5.60;;;5.03;;
7302;SDS011;54309;48.150;11.540;2022-07-23T01:20:21;8.40;;;5.82;;
7302;SDS011;54309;48.150;11.540;2022-07-23T01:22:50;8.52;;;6.03;;
7302;SDS011;54309;48.150;11.540;2022-07-23T01:25:18;6.47;;;5.55;;
7302;SDS011;54309;48.150;11.540;2022-07-23T01:27:45;9.38;;;4.95;;
7302;SDS011;54309;48.150;11.540;2022-07-23T01:30:13;8.25;;;4.40;;
7302;SDS011;54309;48.150;11.540;2022-07-23T01:32:40;7.65;;;4.55;;
7302;SDS011;54309;48.150;11.540;2022-07-23T01:35:08;5.33;;;4.03;;
7302;SDS011;54309;48.150;11.540;2022-07-23T01:37:35;4.90;;;3.90;;
7302;SDS011;54309;48.150;11.540;2022-07-23T01:40:04;7.87;;;3.43;;
7302;SDS011;54309;48.150;11.540;2022-07-23T01:42:32;5.23;;;3.43;;
7302;SDS011;54309;48.150;11.540;2022-07-23T01:44:59;5.13;;;3.80;;
7302;SDS011;54309;48.150;11.540;2022-07-23T01:47:26;5.20;;;4.33;;
7302;SDS011;54309;48.150;11.540;2022-07-23T01:49:54;7.20;;;4.13;;
7302;SDS011;54309;48.150;11.540;2022-07-23T01:52:21;5.33;;;4.63;;
7302;SDS011;54309;48.150;11.540;2022-07-23T01:54:48;6.50;;;4.50;;
7302;SDS011;54309;48.150;11.540;2022-07-23T01:57:16;8.30;;;4.33;;
7302;SDS011;54309;48.150;11.540;2022-07-23T01:59:44;7.87;;;4.30;;
7302;SDS011;54309;48.150;11.540;2022-07-23T02:02:11;7.57;;;4.83;;
7302;SDS011;54309;48.150;11.540;2022-07-23T02:04:38;6.93;;;4.90;;
7302;SDS011;54309;48.150;11.540;2022-07-23T02:07:05;6.13;;;4.23;;
7302;SDS011;54309;48.150;11.540;2022-07-23T02:09:32;5.27;;;4.03;;
7302;SDS011;54309;48.150;11.540;2022-07-23T02:12:00;5.80;;;4.57;;
7302;SDS011;54309;48.150;11.540;2022-07-23T02:14:28;7.43;;;4.40;;
7302;SDS011;54309;48.150;11.540;2022-07-23T02:16:56;7.93;;;4.87;;
7302;SDS011;54309;48.150;11.540;2022-07-23T02:19:23;5.13;;;3.50;;
7302;SDS011;54309;48.150;11.540;2022-07-23T02:21:50;7.80;;;4.33;;
7302;SDS011;54309;48.150;11.540;2022-07-23T02:24:17;4.90;;;4.40;;
7302;SDS011;54309;48.150;11.540;2022-07-23T02:26:44;5.13;;;3.93;;
7302;SDS011;54309;48.150;11.540;2022-07-23T02:29:11;6.73;;;3.70;;
7302;SDS011;54309;48.150;11.540;2022-07-23T02:31:40;6.30;;;4.07;;
7302;SDS011;54309;48.150;11.540;2022-07-23T02:34:07;5.57;;;3.40;;
7302;SDS011;54309;48.150;11.540;2022-07-23T02:36:36;4.03;;;3.27;;
7302;SDS011;54309;48.150;11.540;2022-07-23T02:39:04;4.17;;;3.03;;
7302;SDS011;54309;48.150;11.540;2022-07-23T02:41:31;4.63;;;3.30;;
7302;SDS011;54309;48.150;11.540;2022-07-23T02:43:58;3.50;;;2.53;;
7302;SDS011;54309;48.150;11.540;2022-07-23T02:46:26;5.27;;;3.10;;
7302;SDS011;54309;48.150;11.540;2022-07-23T02:48:54;3.33;;;2.70;;
7302;SDS011;54309;48.150;11.540;2022-07-23T02:51:21;3.23;;;2.73;;
7302;SDS011;54309;48.150;11.540;2022-07-23T02:53:48;3.93;;;2.87;;
7302;SDS011;54309;48.150;11.540;2022-07-23T02:56:16;3.60;;;2.50;;
7302;SDS011;54309;48.150;11.540;2022-07-23T02:58:43;3.93;;;2.93;;
7302;SDS011;54309;48.150;11.540;2022-07-23T03:01:10;3.90;;;3.10;;
7302;SDS011;54309;48.150;11.540;2022-07-23T03:03:40;3.97;;;2.43;;
7302;SDS011;54309;48.150;11.540;2022-07-23T03:06:08;4.37;;;2.87;;
7302;SDS011;54309;48.150;11.540;2022-07-23T03:08:35;3.47;;;2.27;;
7302;SDS011;54309;48.150;11.540;2022-07-23T03:11:03;4.57;;;2.27;;
7302;SDS011;54309;48.150;11.540;2022-07-23T03:13:32;2.80;;;2.30;;
7302;SDS011;54309;48.150;11.540;2022-07-23T03:16:00;3.27;;;2.97;;
7302;SDS011;54309;48.150;11.540;2022-07-23T03:18:27;4.23;;;2.60;;
7302;SDS011;54309;48.150;11.540;2022-07-23T03:20:54;4.43;;;2.70;;
7302;SDS011;54309;48.150;11.540;2022-07-23T03:23:23;4.17;;;3.00;;
7302;SDS011;54309;48.150;11.540;2022-07-23T03:25:50;3.80;;;2.97;;
7302;SDS011;54309;48.150;11.540;2022-07-23T03:28:18;3.43;;;2.80;;
7302;SDS011;54309;48.150;11.540;2022-07-23T03:30:45;4.37;;;3.20;;
7302;SDS011;54309;48.150;11.540;2022-07-23T03:33:13;4.27;;;3.30;;
7302;SDS011;54309;48.150;11.540;2022-07-23T03:35:41;5.73;;;3.30;;
7302;SDS011;54309;48.150;11.540;2022-07-23T03:38:09;3.97;;;3.10;;
7302;SDS011;54309;48.150;11.540;2022-07-23T03:40:37;4.40;;;3.10;;
7302;SDS011;54309;48.150;11.540;2022-07-23T03:43:05;4.27;;;3.30;;
7302;SDS011;54309;48.150;11.540;2022-07-23T03:45:32;3.53;;;3.00;;
7302;SDS011;54309;48.150;11.540;2022-07-23T03:47:59;6.23;;;3.63;;
7302;SDS011;54309;48.150;11.540;2022-07-23T03:50:27;5.17;;;3.33;;
7302;SDS011;54309;48.150;11.540;2022-07-23T03:52:54;3.50;;;3.20;;
7302;SDS011;54309;48.150;11.540;2022-07-23T03:55:21;4.33;;;3.43;;
7302;SDS011;54309;48.150;11.540;2022-07-23T03:57:50;5.20;;;2.93;;
7302;SDS011;54309;48.150;11.540;2022-07-23T04:00:17;4.77;;;3.20;;
7302;SDS011;54309;48.150;11.540;2022-07-23T04:02:44;3.67;;;3.10;;
7302;SDS011;54309;48.150;11.540;2022-07-23T04:05:12;3.67;;;3.20;;
7302;SDS011;54309;48.150;11.540;2022-07-23T04:07:39;4.47;;;3.83;;
7302;SDS011;54309;48.150;11.540;2022-07-23T04:10:06;4.67;;;3.60;;
7302;SDS011;54309;48.150;11.540;2022-07-23T04:12:34;5.07;;;3.63;;
7302;SDS011;54309;48.150;11.540;2022-07-23T04:15:03;4.07;;;3.43;;
7302;SDS011;54309;48.150;11.540;2022-07-23T04:17:31;3.77;;;3.30;;
7302;SDS011;54309;48.150;11.540;2022-07-23T04:19:58;5.23;;;2.87;;
7302;SDS011;54309;48.150;11.540;2022-07-23T04:22:25;3.97;;;3.33;;
7302;SDS011;54309;48.150;11.540;2022-07-23T04:24:52;3.67;;;2.90;;
7302;SDS011;54309;48.150;11.540;2022-07-23T04:27:19;3.47;;;2.80;;
7302;SDS011;54309;48.150;11.540;2022-07-23T04:29:47;4.67;;;3.17;;
7302;SDS011;54309;48.150;11.540;2022-07-23T04:32:15;4.00;;;3.57;;
7302;SDS011;54309;48.150;11.540;2022-07-23T04:34:42;3.83;;;3.10;;
7302;SDS011;54309;48.150;11.540;2022-07-23T04:37:10;5.80;;;3.43;;
7302;SDS011;54309;48.150;11.540;2022-07-23T04:39:37;4.00;;;3.60;;
7302;SDS011;54309;48.150;11.540;2022-07-23T04:42:04;4.07;;;3.60;;
7302;SDS011;54309;48.150;11.540;2022-07-23T04:44:31;4.17;;;3.83;;
7302;SDS011;54309;48.150;11.540;2022-07-23T04:46:58;4.20;;;3.80;;
7302;SDS011;54309;48.150;11.540;2022-07-23T04:49:27;4.53;;;3.13;;
7302;SDS011;54309;48.150;11.540;2022-07-23T04:51:54;4.83;;;4.43;;
7302;SDS011;54309;48.150;11.540;2022-07-23T04:54:21;4.27;;;3.87;;
7302;SDS011;54309;48.150;11.540;2022-07-23T04:56:54;4.23;;;3.83;;
7302;SDS011;54309;48.150;11.540;2022-07-23T04:59:21;5.53;;;3.77;;
7302;SDS011;54309;48.150;11.540;2022-07-23T05:01:48;5.87;;;4.17;;
7302;SDS011;54309;48.150;11.540;2022-07-23T05:04:16;4.40;;;4.10;;
7302;SDS011;54309;48.150;11.540;2022-07-23T05:06:45;5.30;;;4.10;;
7302;SDS011;54309;48.150;11.540;2022-07-23T05:09:15;4.83;;;4.43;;
7302;SDS011;54309;48.150;11.540;2022-07-23T05:11:42;4.70;;;4.17;;
7302;SDS011;54309;48.150;11.540;2022-07-23T05:14:09;4.80;;;4.40;;
7302;SDS011;54309;48.150;11.540;2022-07-23T05:16:39;5.60;;;4.00;;
7302;SDS011;54309;48.150;11.540;2022-07-23T05:19:07;4.93;;;4.50;;
7302;SDS011;54309;48.150;11.540;2022-07-23T05:21:34;5.30;;;4.80;;
7302;SDS011;54309;48.150;11.540;2022-07-23T05:24:03;4.70;;;4.27;;
7302;SDS011;54309;48.150;11.540;2022-07-23T05:26:30;5.00;;;4.60;;
7302;SDS011;54309;48.150;11.540;2022-07-23T05:28:57;5.57;;;5.07;;
7302;SDS011;54309;48.150;11.540;2022-07-23T05:31:25;5.20;;;4.80;;
7302;SDS011;54309;48.150;11.540;2022-07-23T05:33:52;4.75;;;4.40;;
7302;SDS011;54309;48.150;11.540;2022-07-23T05:36:19;5.47;;;5.07;;
7302;SDS011;54309;48.150;11.540;2022-07-23T05:38:46;4.73;;;4.37;;
7302;SDS011;54309;48.150;11.540;2022-07-23T05:41:15;5.47;;;4.97;;
7302;SDS011;54309;48.150;11.540;2022-07-23T05:43:42;5.17;;;4.77;;
7302;SDS011;54309;48.150;11.540;2022-07-23T05:46:09;5.93;;;5.00;;
7302;SDS011;54309;48.150;11.540;2022-07-23T05:48:37;5.40;;;4.93;;
7302;SDS011;54309;48.150;11.540;2022-07-23T05:51:04;5.37;;;4.87;;
7302;SDS011;54309;48.150;11.540;2022-07-23T05:53:32;5.50;;;5.00;;
7302;SDS011;54309;48.150;11.540;2022-07-23T05:55:59;4.93;;;4.53;;
7302;SDS011;54309;48.150;11.540;2022-07-23T05:58:28;5.30;;;4.90;;
7302;SDS011;54309;48.150;11.540;2022-07-23T06:00:55;5.90;;;5.40;;
7302;SDS011;54309;48.150;11.540;2022-07-23T06:03:22;5.27;;;4.87;;
7302;SDS011;54309;48.150;11.540;2022-07-23T06:05:50;5.67;;;5.17;;
7302;SDS011;54309;48.150;11.540;2022-07-23T06:08:17;5.47;;;5.07;;
7302;SDS011;54309;48.150;11.540;2022-07-23T06:10:45;5.30;;;4.80;;
7302;SDS011;54309;48.150;11.540;2022-07-23T06:13:12;5.77;;;5.20;;
7302;SDS011;54309;48.150;11.540;2022-07-23T06:15:40;6.03;;;5.13;;
7302;SDS011;54309;48.150;11.540;2022-07-23T06:18:08;6.13;;;5.63;;
7302;SDS011;54309;48.150;11.540;2022-07-23T06:20:35;5.90;;;5.43;;
7302;SDS011;54309;48.150;11.540;2022-07-23T06:23:03;6.97;;;6.37;;
7302;SDS011;54309;48.150;11.540;2022-07-23T06:25:30;7.67;;;5.23;;
7302;SDS011;54309;48.150;11.540;2022-07-23T06:28:00;5.20;;;4.80;;
7302;SDS011;54309;48.150;11.540;2022-07-23T06:30:31;5.73;;;5.17;;
7302;SDS011;54309;48.150;11.540;2022-07-23T06:32:59;7.90;;;5.53;;
7302;SDS011;54309;48.150;11.540;2022-07-23T06:35:26;6.40;;;5.80;;
7302;SDS011;54309;48.150;11.540;2022-07-23T06:37:53;4.60;;;4.20;;
7302;SDS011;54309;48.150;11.540;2022-07-23T06:40:21;4.83;;;4.37;;
7302;SDS011;54309;48.150;11.540;2022-07-23T06:42:48;5.17;;;4.67;;
7302;SDS011;54309;48.150;11.540;2022-07-23T06:45:15;4.90;;;4.37;;
7302;SDS011;54309;48.150;11.540;2022-07-23T06:47:42;5.87;;;4.47;;
7302;SDS011;54309;48.150;11.540;2022-07-23T06:50:11;4.57;;;4.10;;
7302;SDS011;54309;48.150;11.540;2022-07-23T06:52:38;6.77;;;4.93;;
7302;SDS011;54309;48.150;11.540;2022-07-23T06:55:06;5.43;;;4.87;;
7302;SDS011;54309;48.150;11.540;2022-07-23T06:57:33;5.80;;;4.63;;
7302;SDS011;54309;48.150;11.540;2022-07-23T07:00:00;7.20;;;4.80;;
7302;SDS011;54309;48.150;11.540;2022-07-23T07:02:27;4.90;;;4.40;;
7302;SDS011;54309;48.150;11.540;2022-07-23T07:04:55;5.10;;;4.70;;
7302;SDS011;54309;48.150;11.540;2022-07-23T07:07:23;5.90;;;5.30;;
7302;SDS011;54309;48.150;11.540;2022-07-23T07:09:50;5.17;;;4.10;;
7302;SDS011;54309;48.150;11.540;2022-07-23T07:12:18;4.80;;;4.33;;
7302;SDS011;54309;48.150;11.540;2022-07-23T07:14:45;5.23;;;4.73;;
7302;SDS011;54309;48.150;11.540;2022-07-23T07:17:13;5.93;;;4.73;;
7302;SDS011;54309;48.150;11.540;2022-07-23T07:19:41;5.07;;;4.67;;
7302;SDS011;54309;48.150;11.540;2022-07-23T07:22:08;5.47;;;5.00;;
7302;SDS011;54309;48.150;11.540;2022-07-23T07:24:36;5.50;;;4.90;;
7302;SDS011;54309;48.150;11.540;2022-07-23T07:27:04;5.90;;;5.33;;
7302;SDS011;54309;48.150;11.540;2022-07-23T07:29:31;6.00;;;5.10;;
7302;SDS011;54309;48.150;11.540;2022-07-23T07:31:58;5.10;;;4.63;;
7302;SDS011;54309;48.150;11.540;2022-07-23T07:34:25;4.87;;;4.13;;
7302;SDS011;54309;48.150;11.540;2022-07-23T07:36:53;8.07;;;4.73;;
7302;SDS011;54309;48.150;11.540;2022-07-23T07:39:20;5.67;;;5.00;;
7302;SDS011;54309;48.150;11.540;2022-07-23T07:41:48;5.50;;;5.00;;
7302;SDS011;54309;48.150;11.540;2022-07-23T07:44:16;5.47;;;4.97;;
7302;SDS011;54309;48.150;11.540;2022-07-23T07:46:43;6.40;;;4.97;;
7302;SDS011;54309;48.150;11.540;2022-07-23T07:49:10;5.90;;;5.00;;
7302;SDS011;54309;48.150;11.540;2022-07-23T07:51:37;4.90;;;4.40;;
7302;SDS011;54309;48.150;11.540;2022-07-23T07:54:05;6.10;;;5.17;;
7302;SDS011;54309;48.150;11.540;2022-07-23T07:56:32;5.30;;;4.80;;
7302;SDS011;54309;48.150;11.540;2022-07-23T07:59:00;6.27;;;5.50;;
7302;SDS011;54309;48.150;11.540;2022-07-23T08:01:28;6.57;;;5.30;;
7302;SDS011;54309;48.150;11.540;2022-07-23T08:03:55;7.57;;;5.27;;
7302;SDS011;54309;48.150;11.540;2022-07-23T08:06:22;5.63;;;4.60;;
7302;SDS011;54309;48.150;11.540;2022-07-23T08:08:50;6.07;;;4.90;;
7302;SDS011;54309;48.150;11.540;2022-07-23T08:11:17;6.07;;;5.43;;
7302;SDS011;54309;48.150;11.540;2022-07-23T08:13:44;6.23;;;5.30;;
7302;SDS011;54309;48.150;11.540;2022-07-23T08:16:13;5.47;;;4.87;;
7302;SDS011;54309;48.150;11.540;2022-07-23T08:18:40;5.77;;;4.63;;
7302;SDS011;54309;48.150;11.540;2022-07-23T08:21:07;6.53;;;5.23;;
7302;SDS011;54309;48.150;11.540;2022-07-23T08:23:34;7.73;;;4.90;;
7302;SDS011;54309;48.150;11.540;2022-07-23T08:26:02;7.00;;;5.67;;
7302;SDS011;54309;48.150;11.540;2022-07-23T08:28:29;6.13;;;4.67;;
7302;SDS011;54309;48.150;11.540;2022-07-23T08:30:58;5.30;;;4.80;;
7302;SDS011;54309;48.150;11.540;2022-07-23T08:33:27;6.50;;;5.37;;
7302;SDS011;54309;48.150;11.540;2022-07-23T08:35:54;5.93;;;5.43;;
7302;SDS011;54309;48.150;11.540;2022-07-23T08:38:21;6.22;;;5.30;;
7302;SDS011;54309;48.150;11.540;2022-07-23T08:40:50;8.20;;;5.53;;
7302;SDS011;54309;48.150;11.540;2022-07-23T08:43:18;5.78;;;4.85;;
7302;SDS011;54309;48.150;11.540;2022-07-23T08:45:47;5.68;;;5.20;;
7302;SDS011;54309;48.150;11.540;2022-07-23T08:48:16;5.68;;;5.20;;
7302;SDS011;54309;48.150;11.540;2022-07-23T08:50:45;6.10;;;5.50;;
7302;SDS011;54309;48.150;11.540;2022-07-23T08:53:13;5.82;;;5.30;;
7302;SDS011;54309;48.150;11.540;2022-07-23T08:55:42;5.63;;;5.13;;
7302;SDS011;54309;48.150;11.540;2022-07-23T08:58:10;5.80;;;5.40;;
7302;SDS011;54309;48.150;11.540;2022-07-23T09:00:37;5.85;;;5.45;;
7302;SDS011;54309;48.150;11.540;2022-07-23T09:03:04;6.22;;;5.60;;
7302;SDS011;54309;48.150;11.540;2022-07-23T09:05:32;6.10;;;5.50;;
7302;SDS011;54309;48.150;11.540;2022-07-23T09:08:04;5.63;;;5.22;;
7302;SDS011;54309;48.150;11.540;2022-07-23T09:10:36;7.60;;;5.65;;
7302;SDS011;54309;48.150;11.540;2022-07-23T09:15:52;6.00;;;5.50;;
7302;SDS011;54309;48.150;11.540;2022-07-23T09:18:27;5.60;;;5.20;;
7302;SDS011;54309;48.150;11.540;2022-07-23T09:21:04;6.05;;;5.40;;
7302;SDS011;54309;48.150;11.540;2022-07-23T09:23:37;6.38;;;5.82;;
7302;SDS011;54309;48.150;11.540;2022-07-23T09:26:12;5.82;;;5.30;;
7302;SDS011;54309;48.150;11.540;2022-07-23T09:28:49;5.93;;;5.47;;
7302;SDS011;54309;48.150;11.540;2022-07-23T09:31:19;6.13;;;5.63;;
7302;SDS011;54309;48.150;11.540;2022-07-23T09:33:48;6.60;;;6.10;;
7302;SDS011;54309;48.150;11.540;2022-07-23T09:36:15;6.45;;;5.95;;
7302;SDS011;54309;48.150;11.540;2022-07-23T09:38:54;6.10;;;5.60;;
7302;SDS011;54309;48.150;11.540;2022-07-23T09:41:22;6.63;;;6.05;;
7302;SDS011;54309;48.150;11.540;2022-07-23T09:43:54;5.65;;;5.10;;
7302;SDS011;54309;48.150;11.540;2022-07-23T09:46:23;6.60;;;6.10;;
7302;SDS011;54309;48.150;11.540;2022-07-23T09:48:50;6.10;;;5.45;;
7302;SDS011;54309;48.150;11.540;2022-07-23T09:51:18;6.20;;;5.57;;
7302;SDS011;54309;48.150;11.540;2022-07-23T09:53:49;5.10;;;4.80;;
7302;SDS011;54309;48.150;11.540;2022-07-23T09:56:17;4.93;;;4.55;;
7302;SDS011;54309;48.150;11.540;2022-07-23T09:58:48;6.03;;;5.63;;
7302;SDS011;54309;48.150;11.540;2022-07-23T10:01:16;6.00;;;5.40;;
7302;SDS011;54309;48.150;11.540;2022-07-23T10:03:45;5.90;;;5.43;;
7302;SDS011;54309;48.150;11.540;2022-07-23T10:06:13;5.65;;;5.15;;
7302;SDS011;54309;48.150;11.540;2022-07-23T10:08:40;5.35;;;4.95;;
7302;SDS011;54309;48.150;11.540;2022-07-23T10:11:09;5.47;;;5.05;;
7302;SDS011;54309;48.150;11.540;2022-07-23T10:13:39;5.38;;;4.97;;
7302;SDS011;54309;48.150;11.540;2022-07-23T10:16:18;5.25;;;4.85;;
7302;SDS011;54309;48.150;11.540;2022-07-23T10:18:45;5.20;;;4.70;;
7302;SDS011;54309;48.150;11.540;2022-07-23T10:21:15;6.03;;;4.78;;
7302;SDS011;54309;48.150;11.540;2022-07-23T10:23:44;5.60;;;5.00;;
7302;SDS011;54309;48.150;11.540;2022-07-23T10:26:16;6.43;;;5.40;;
7302;SDS011;54309;48.150;11.540;2022-07-23T10:28:55;5.93;;;5.43;;
7302;SDS011;54309;48.150;11.540;2022-07-23T10:31:27;5.53;;;5.13;;
7302;SDS011;54309;48.150;11.540;2022-07-23T10:33:59;5.78;;;5.28;;
7302;SDS011;54309;48.150;11.540;2022-07-23T10:36:30;5.32;;;4.85;;
7302;SDS011;54309;48.150;11.540;2022-07-23T10:39:04;7.55;;;5.63;;
7302;SDS011;54309;48.150;11.540;2022-07-23T10:41:32;5.38;;;4.90;;
7302;SDS011;54309;48.150;11.540;2022-07-23T10:44:08;5.10;;;4.60;;
7302;SDS011;54309;48.150;11.540;2022-07-23T10:46:35;5.40;;;5.10;;
7302;SDS011;54309;48.150;11.540;2022-07-23T10:49:25;5.47;;;5.05;;
7302;SDS011;54309;48.150;11.540;2022-07-23T10:54:38;4.80;;;4.35;;
7302;SDS011;54309;48.150;11.540;2022-07-23T10:57:06;5.03;;;4.60;;
7302;SDS011;54309;48.150;11.540;2022-07-23T11:02:23;4.43;;;4.13;;
7302;SDS011;54309;48.150;11.540;2022-07-23T11:04:51;4.90;;;4.50;;
7302;SDS011;54309;48.150;11.540;2022-07-23T11:07:19;5.75;;;5.13;;
7302;SDS011;54309;48.150;11.540;2022-07-23T11:09:46;4.90;;;4.50;;
7302;SDS011;54309;48.150;11.540;2022-07-23T11:12:32;5.60;;;5.10;;
7302;SDS011;54309;48.150;11.540;2022-07-23T11:15:03;4.82;;;4.50;;
7302;SDS011;54309;48.150;11.540;2022-07-23T11:17:32;5.15;;;4.75;;
7302;SDS011;54309;48.150;11.540;2022-07-23T11:20:19;5.20;;;4.70;;
7302;SDS011;54309;48.150;11.540;2022-07-23T11:22:47;5.72;;;5.22;;
7302;SDS011;54309;48.150;11.540;2022-07-23T11:25:28;6.50;;;5.10;;
7302;SDS011;54309;48.150;11.540;2022-07-23T11:28:06;5.40;;;4.90;;
7302;SDS011;54309;48.150;11.540;2022-07-23T11:30:37;5.47;;;5.03;;
7302;SDS011;54309;48.150;11.540;2022-07-23T11:33:19;4.93;;;4.43;;
7302;SDS011;54309;48.150;11.540;2022-07-23T11:35:47;4.97;;;4.57;;
7302;SDS011;54309;48.150;11.540;2022-07-23T11:38:16;5.03;;;4.53;;
7302;SDS011;54309;48.150;11.540;2022-07-23T11:40:44;5.25;;;4.75;;
7302;SDS011;54309;48.150;11.540;2022-07-23T11:43:11;8.13;;;5.55;;
7302;SDS011;54309;48.150;11.540;2022-07-23T11:45:39;5.15;;;4.65;;
7302;SDS011;54309;48.150;11.540;2022-07-23T11:48:07;4.90;;;4.50;;
7302;SDS011;54309;48.150;11.540;2022-07-23T11:50:36;5.70;;;5.20;;
7302;SDS011;54309;48.150;11.540;2022-07-23T11:53:04;4.70;;;4.40;;
7302;SDS011;54309;48.150;11.540;2022-07-23T11:55:31;6.53;;;5.32;;
7302;SDS011;54309;48.150;11.540;2022-07-23T11:57:58;5.88;;;5.32;;
7302;SDS011;54309;48.150;11.540;2022-07-23T12:00:26;6.60;;;5.07;;
7302;SDS011;54309;48.150;11.540;2022-07-23T12:02:55;6.18;;;5.22;;
7302;SDS011;54309;48.150;11.540;2022-07-23T12:05:24;6.28;;;5.68;;
7302;SDS011;54309;48.150;11.540;2022-07-23T12:07:53;6.60;;;5.43;;
7302;SDS011;54309;48.150;11.540;2022-07-23T12:10:21;5.70;;;5.15;;
7302;SDS011;54309;48.150;11.540;2022-07-23T12:12:49;4.38;;;4.07;;
7302;SDS011;54309;48.150;11.540;2022-07-23T12:15:22;5.43;;;4.93;;
7302;SDS011;54309;48.150;11.540;2022-07-23T12:17:50;6.00;;;5.20;;
7302;SDS011;54309;48.150;11.540;2022-07-23T12:20:18;6.45;;;5.07;;
7302;SDS011;54309;48.150;11.540;2022-07-23T12:22:47;5.57;;;5.07;;
7302;SDS011;54309;48.150;11.540;2022-07-23T12:25:17;5.15;;;4.65;;
7302;SDS011;54309;48.150;11.540;2022-07-23T12:27:44;6.18;;;5.57;;
7302;SDS011;54309;48.150;11.540;2022-07-23T12:30:19;13.63;;;5.35;;
7302;SDS011;54309;48.150;11.540;2022-07-23T12:32:47;5.55;;;4.43;;
7302;SDS011;54309;48.150;11.540;2022-07-23T12:35:16;5.82;;;5.30;;
7302;SDS011;54309;48.150;11.540;2022-07-23T12:37:44;5.15;;;4.65;;
7302;SDS011;54309;48.150;11.540;2022-07-23T12:40:29;4.80;;;4.40;;
7302;SDS011;54309;48.150;11.540;2022-07-23T12:42:57;5.65;;;5.10;;
7302;SDS011;54309;48.150;11.540;2022-07-23T12:45:25;5.57;;;5.07;;
7302;SDS011;54309;48.150;11.540;2022-07-23T12:47:53;4.75;;;4.25;;
7302;SDS011;54309;48.150;11.540;2022-07-23T12:53:06;5.13;;;4.63;;
7302;SDS011;54309;48.150;11.540;2022-07-23T12:55:35;6.90;;;4.90;;
7302;SDS011;54309;48.150;11.540;2022-07-23T12:58:03;5.35;;;4.93;;
7302;SDS011;54309;48.150;11.540;2022-07-23T13:00:31;5.47;;;4.97;;
7302;SDS011;54309;48.150;11.540;2022-07-23T13:02:58;5.78;;;5.13;;
7302;SDS011;54309;48.150;11.540;2022-07-23T13:05:26;4.82;;;4.43;;
7302;SDS011;54309;48.150;11.540;2022-07-23T13:07:53;5.80;;;5.30;;
7302;SDS011;54309;48.150;11.540;2022-07-23T13:10:20;5.28;;;4.78;;
7302;SDS011;54309;48.150;11.540;2022-07-23T13:12:49;6.28;;;5.70;;
7302;SDS011;54309;48.150;11.540;2022-07-23T13:15:16;5.90;;;5.30;;
7302;SDS011;54309;48.150;11.540;2022-07-23T13:17:43;6.10;;;5.55;;
7302;SDS011;54309;48.150;11.540;2022-07-23T13:20:11;5.53;;;4.95;;
7302;SDS011;54309;48.150;11.540;2022-07-23T13:22:39;5.35;;;4.85;;
7302;SDS011;54309;48.150;11.540;2022-07-23T13:25:07;5.93;;;5.43;;
7302;SDS011;54309;48.150;11.540;2022-07-23T13:27:34;5.90;;;5.30;;
7302;SDS011;54309;48.150;11.540;2022-07-23T13:30:03;5.95;;;5.35;;
7302;SDS011;54309;48.150;11.540;2022-07-23T13:32:31;7.55;;;5.32;;
7302;SDS011;54309;48.150;11.540;2022-07-23T13:34:58;5.90;;;5.30;;
7302;SDS011;54309;48.150;11.540;2022-07-23T13:37:25;5.78;;;5.05;;
7302;SDS011;54309;48.150;11.540;2022-07-23T13:39:52;5.00;;;4.60;;
7302;SDS011;54309;48.150;11.540;2022-07-23T13:42:20;5.57;;;5.07;;
7302;SDS011;54309;48.150;11.540;2022-07-23T13:44:47;5.85;;;5.35;;
7302;SDS011;54309;48.150;11.540;2022-07-23T13:47:15;5.63;;;5.22;;
7302;SDS011;54309;48.150;11.540;2022-07-23T13:49:42;6.32;;;5.72;;
7302;SDS011;54309;48.150;11.540;2022-07-23T13:52:10;5.20;;;4.80;;
7302;SDS011;54309;48.150;11.540;2022-07-23T13:54:37;5.97;;;5.47;;
7302;SDS011;54309;48.150;11.540;2022-07-23T13:57:04;5.85;;;5.00;;
7302;SDS011;54309;48.150;11.540;2022-07-23T13:59:34;5.20;;;4.70;;
7302;SDS011;54309;48.150;11.540;2022-07-23T14:02:01;5.25;;;4.75;;
7302;SDS011;54309;48.150;11.540;2022-07-23T14:04:30;6.25;;;5.15;;
7302;SDS011;54309;48.150;11.540;2022-07-23T14:06:58;5.55;;;5.05;;
7302;SDS011;54309;48.150;11.540;2022-07-23T14:09:25;5.32;;;4.82;;
7302;SDS011;54309;48.150;11.540;2022-07-23T14:11:52;6.25;;;5.13;;
7302;SDS011;54309;48.150;11.540;2022-07-23T14:14:20;5.13;;;4.68;;
7302;SDS011;54309;48.150;11.540;2022-07-23T14:16:47;5.00;;;4.60;;
7302;SDS011;54309;48.150;11.540;2022-07-23T14:19:14;5.30;;;4.63;;
7302;SDS011;54309;48.150;11.540;2022-07-23T14:21:43;6.20;;;5.50;;
7302;SDS011;54309;48.150;11.540;2022-07-23T14:24:10;5.40;;;4.95;;
7302;SDS011;54309;48.150;11.540;2022-07-23T14:26:38;5.70;;;5.20;;
7302;SDS011;54309;48.150;11.540;2022-07-23T14:29:05;6.43;;;5.07;;
7302;SDS011;54309;48.150;11.540;2022-07-23T14:31:32;5.72;;;4.45;;
7302;SDS011;54309;48.150;11.540;2022-07-23T14:33:59;5.22;;;4.80;;
7302;SDS011;54309;48.150;11.540;2022-07-23T14:36:27;6.40;;;5.07;;
7302;SDS011;54309;48.150;11.540;2022-07-23T14:38:55;6.32;;;5.70;;
7302;SDS011;54309;48.150;11.540;2022-07-23T14:41:23;5.28;;;4.78;;
7302;SDS011;54309;48.150;11.540;2022-07-23T14:43:50;8.82;;;4.68;;
7302;SDS011;54309;48.150;11.540;2022-07-23T14:46:17;4.90;;;4.50;;
7302;SDS011;54309;48.150;11.540;2022-07-23T14:48:44;5.43;;;4.93;;
7302;SDS011;54309;48.150;11.540;2022-07-23T14:51:12;5.68;;;4.68;;
7302;SDS011;54309;48.150;11.540;2022-07-23T14:53:39;4.97;;;4.57;;
7302;SDS011;54309;48.150;11.540;2022-07-23T14:56:07;5.20;;;4.80;;
7302;SDS011;54309;48.150;11.540;2022-07-23T14:58:34;5.63;;;5.13;;
7302;SDS011;54309;48.150;11.540;2022-07-23T15:01:02;5.43;;;4.93;;
7302;SDS011;54309;48.150;11.540;2022-07-23T15:03:29;6.38;;;5.03;;
7302;SDS011;54309;48.150;11.540;2022-07-23T15:05:56;4.72;;;4.38;;